Time;durP1;ratioP1;P1;durP2;ratioP2;P2;SDS_P1;SDS_P2;PMS_P1;PMS_P2;Temp;Humidity;BMP_temperature;BMP_pressure;BME280_temperature;BME280_humidity;BME280_pressure;Samples;Min_cycle;Max_cycle;Signal;HPM_P1;HPM_P2
2023/01/19 00:01:13;;;;;;;;;9.75;8.00;;;;;4.72;68.84;100344.72;6275118;22;45426;-45
2023/01/19 00:03:39;;;;;;;;;12.00;9.50;;;;;4.73;68.25;100349.00;6274737;22;45290;-46
2023/01/19 00:06:08;;;;;;;;;9.00;7.50;;;;;4.79;68.34;100342.41;6275339;22;45461;-46
2023/01/19 00:08:34;;;;;;;;;7.00;7.00;;;;;4.81;68.57;100351.06;6275609;22;45234;-47
2023/01/19 00:11:00;;;;;;;;;11.75;10.75;;;;;4.82;69.15;100358.00;6275204;22;45189;-47
2023/01/19 00:13:26;;;;;;;;;10.00;8.00;;;;;4.83;68.75;100357.03;6275865;22;45234;-45
2023/01/19 00:15:52;;;;;;;;;11.75;10.25;;;;;4.82;68.50;100348.28;6274822;22;47056;-49
2023/01/19 00:18:17;;;;;;;;;15.75;10.00;;;;;4.83;68.47;100349.97;6274900;22;45241;-48
2023/01/19 00:20:45;;;;;;;;;9.25;8.00;;;;;4.48;68.48;100302.66;6274858;22;45523;-49
2023/01/19 00:23:10;;;;;;;;;13.50;9.25;;;;;4.83;68.89;100359.66;6274733;22;45363;-51
2023/01/19 00:25:43;;;;;;;;;13.25;7.75;;;;;4.70;68.05;100351.88;6274593;22;45238;-51
2023/01/19 00:28:13;;;;;;;;;11.50;9.75;;;;;4.71;68.72;100364.91;6275204;22;45406;-47
2023/01/19 00:30:38;;;;;;;;;11.50;9.25;;;;;4.70;68.62;100360.63;6274641;22;45194;-49
2023/01/19 00:33:04;;;;;;;;;12.50;9.50;;;;;4.71;69.03;100366.72;6275042;22;45331;-48
2023/01/19 00:35:29;;;;;;;;;8.50;8.50;;;;;4.74;68.85;100377.03;6274720;22;46224;-48
2023/01/19 00:37:56;;;;;;;;;10.00;9.50;;;;;4.72;68.43;100369.25;6275125;22;45186;-50
2023/01/19 00:40:22;;;;;;;;;11.25;7.00;;;;;4.75;69.06;100370.78;6274348;22;45337;-47
2023/01/19 00:42:47;;;;;;;;;11.75;7.50;;;;;4.76;68.90;100369.84;6274955;22;45196;-46
2023/01/19 00:45:15;;;;;;;;;11.00;10.00;;;;;4.72;68.54;100363.16;6275147;22;45846;-45
2023/01/19 00:47:41;;;;;;;;;12.50;7.75;;;;;4.64;69.07;100366.38;6273305;22;45483;-46
2023/01/19 00:50:10;;;;;;;;;22.75;9.25;;;;;4.55;69.09;100372.34;6274592;22;45206;-50
2023/01/19 00:52:39;;;;;;;;;11.75;10.50;;;;;4.47;69.53;100372.09;6274871;22;45260;-44
2023/01/19 00:55:07;;;;;;;;;16.50;8.00;;;;;4.44;68.75;100378.41;6274593;22;45293;-45
2023/01/19 00:57:32;;;;;;;;;9.25;9.25;;;;;4.40;68.28;100374.34;6274244;22;45277;-52
2023/01/19 00:59:58;;;;;;;;;10.50;7.00;;;;;4.42;69.16;100382.13;6274578;22;45190;-46
2023/01/19 01:02:23;;;;;;;;;9.75;8.25;;;;;4.32;69.71;100360.06;6246717;22;45498;-46
2023/01/19 01:04:53;;;;;;;;;11.50;8.00;;;;;4.45;69.10;100387.16;6274684;22;46114;-46
2023/01/19 01:07:20;;;;;;;;;13.00;7.75;;;;;4.47;69.43;100382.63;6274330;22;45340;-48
2023/01/19 01:09:45;;;;;;;;;13.50;11.25;;;;;4.39;69.25;100372.66;6274183;22;45239;-46
2023/01/19 01:12:10;;;;;;;;;17.75;13.25;;;;;4.52;70.14;100383.13;6274974;22;45380;-48
2023/01/19 01:14:36;;;;;;;;;17.75;11.00;;;;;4.44;69.74;100372.31;6274771;22;45229;-47
2023/01/19 01:17:01;;;;;;;;;12.00;10.00;;;;;4.57;69.50;100401.19;6274307;22;45285;-47
2023/01/19 01:19:27;;;;;;;;;12.25;10.00;;;;;4.62;69.28;100412.22;6274210;22;45210;-45
2023/01/19 01:21:52;;;;;;;;;12.50;8.00;;;;;4.52;69.46;100391.00;6274909;22;45253;-46
2023/01/19 01:24:18;;;;;;;;;14.75;8.00;;;;;4.64;69.50;100408.53;6274308;22;45360;-45
2023/01/19 01:26:43;;;;;;;;;11.50;11.50;;;;;4.63;68.79;100411.25;6274774;22;45151;-47
2023/01/19 01:29:08;;;;;;;;;13.00;13.00;;;;;4.58;69.09;100416.03;6273881;22;45174;-48
2023/01/19 01:31:34;;;;;;;;;17.00;13.00;;;;;4.57;69.53;100427.53;6248107;22;45265;-49
2023/01/19 01:34:00;;;;;;;;;16.50;11.00;;;;;4.49;69.84;100412.31;6275127;22;46157;-48
2023/01/19 01:36:27;;;;;;;;;13.25;9.50;;;;;4.56;69.25;100434.59;6276389;22;45305;-46
2023/01/19 01:38:53;;;;;;;;;16.75;12.00;;;;;4.54;69.29;100425.97;6275376;22;45354;-50
2023/01/19 01:41:18;;;;;;;;;13.75;9.00;;;;;4.55;69.77;100435.56;6276145;22;45321;-47
2023/01/19 01:44:00;;;;;;;;;11.75;10.75;;;;;4.56;68.94;100431.97;6275509;22;46356;-48
2023/01/19 01:46:27;;;;;;;;;13.25;11.25;;;;;4.56;68.72;100439.03;6275347;22;45170;-45
2023/01/19 01:49:22;;;;;;;;;18.00;13.00;;;;;4.55;69.18;100443.47;6275660;22;45276;-46
2023/01/19 01:51:51;;;;;;;;;13.50;11.00;;;;;4.53;69.62;100450.63;6266129;22;45300;-47
2023/01/19 01:54:30;;;;;;;;;14.00;11.50;;;;;4.54;68.58;100454.09;6275518;22;47337;-48
2023/01/19 01:57:00;;;;;;;;;15.75;12.75;;;;;4.46;69.44;100434.44;6275674;22;45273;-46
2023/01/19 01:59:33;;;;;;;;;13.25;11.00;;;;;4.55;69.18;100451.38;6275347;22;45390;-46
2023/01/19 02:04:52;;;;;;;;;15.00;12.25;;;;;4.51;68.68;100452.56;6275432;22;45300;-49
2023/01/19 02:13:17;;;;;;;;;17.50;13.25;;;;;4.49;69.08;100463.19;6121620;23;45284;-50
2023/01/19 02:15:42;;;;;;;;;15.00;12.00;;;;;4.37;69.15;100445.66;6121126;23;45879;-51
2023/01/19 02:18:08;;;;;;;;;12.25;10.75;;;;;4.30;69.24;100446.22;6121151;23;45274;-47
2023/01/19 02:20:35;;;;;;;;;13.75;9.50;;;;;4.39;68.78;100467.47;6096585;23;45209;-49
2023/01/19 02:23:04;;;;;;;;;21.50;14.00;;;;;4.37;68.84;100466.72;6121336;23;45345;-51
2023/01/19 02:25:29;;;;;;;;;19.50;15.75;;;;;4.35;68.87;100462.56;6120987;23;47158;-51
2023/01/19 02:27:55;;;;;;;;;21.25;14.50;;;;;4.35;69.84;100471.28;6121279;23;45257;-48
2023/01/19 02:30:21;;;;;;;;;17.00;13.75;;;;;4.32;69.64;100463.59;6121024;23;45353;-47
2023/01/19 02:32:46;;;;;;;;;16.50;13.00;;;;;4.30;69.05;100465.53;6121233;23;45371;-46
2023/01/19 02:35:12;;;;;;;;;12.75;12.00;;;;;4.21;69.51;100461.78;6120906;23;45213;-49
2023/01/19 02:37:39;;;;;;;;;16.25;12.00;;;;;4.24;69.42;100471.22;6121165;23;45216;-48
2023/01/19 02:40:10;;;;;;;;;25.50;19.25;;;;;4.26;69.85;100471.97;6121183;23;45343;-45
2023/01/19 02:42:47;;;;;;;;;14.50;14.50;;;;;4.26;69.59;100471.97;6121759;23;45319;-47
2023/01/19 02:45:16;;;;;;;;;16.25;16.00;;;;;4.25;70.21;100468.47;6120824;23;46260;-47
2023/01/19 02:47:48;;;;;;;;;17.75;14.50;;;;;4.25;70.60;100459.75;6234034;22;45187;-46
2023/01/19 02:50:32;;;;;;;;;16.25;15.25;;;;;4.23;69.73;100462.50;6273936;22;45178;-49
2023/01/19 02:53:08;;;;;;;;;21.75;16.75;;;;;4.27;70.76;100465.75;6275401;22;45274;-51
2023/01/19 02:55:33;;;;;;;;;34.75;19.00;;;;;4.23;70.34;100453.75;6274912;22;46027;-52
2023/01/19 02:58:04;;;;;;;;;22.50;19.50;;;;;4.25;70.31;100457.94;6275466;22;45474;-52
2023/01/19 03:00:47;;;;;;;;;25.75;14.75;;;;;4.17;70.61;100455.06;6275494;22;45244;-52
2023/01/19 03:03:31;;;;;;;;;27.25;18.00;;;;;4.08;70.32;100450.44;6275891;22;45391;-52
2023/01/19 03:06:07;;;;;;;;;26.00;14.25;;;;;4.02;70.01;100461.44;6275237;22;47355;-52
2023/01/19 03:09:00;;;;;;;;;20.00;16.00;;;;;4.00;70.50;100465.94;6275436;22;45283;-47
2023/01/19 03:11:36;;;;;;;;;27.75;14.75;;;;;3.94;70.22;100461.16;6275187;22;45282;-48
2023/01/19 03:14:12;;;;;;;;;11.25;9.50;;;;;3.91;70.58;100469.25;6275140;22;45269;-46
2023/01/19 03:16:54;;;;;;;;;14.50;14.50;;;;;3.89;69.61;100460.66;6275273;22;46130;-47
2023/01/19 03:19:31;;;;;;;;;17.75;14.25;;;;;3.92;70.33;100460.44;6274753;22;45364;-47
2023/01/19 03:22:01;;;;;;;;;20.25;13.75;;;;;3.87;69.52;100452.00;6275529;22;45316;-50
2023/01/19 03:24:33;;;;;;;;;24.00;14.50;;;;;3.70;70.80;100425.13;6249427;22;45308;-50
2023/01/19 03:27:09;;;;;;;;;26.50;17.00;;;;;3.89;71.11;100461.50;6274814;22;46298;-52
2023/01/19 03:29:39;;;;;;;;;22.50;16.00;;;;;3.88;70.79;100465.06;6275752;22;45329;-49
2023/01/19 03:32:12;;;;;;;;;19.50;16.50;;;;;3.88;71.48;100466.88;6274173;22;45425;-48
2023/01/19 03:34:40;;;;;;;;;21.50;15.75;;;;;3.83;71.06;100461.91;6275459;22;45175;-51
2023/01/19 03:37:06;;;;;;;;;30.75;17.75;;;;;3.86;70.96;100463.50;6275127;22;47023;-52
2023/01/19 03:39:33;;;;;;;;;19.25;13.50;;;;;3.83;71.16;100450.56;6275019;22;45353;-49
2023/01/19 03:42:06;;;;;;;;;20.50;17.50;;;;;3.85;71.49;100456.56;6275733;22;45378;-52
2023/01/19 03:44:35;;;;;;;;;16.50;13.25;;;;;3.80;71.73;100467.41;6276083;22;45333;-49
2023/01/19 03:47:03;;;;;;;;;27.25;18.25;;;;;3.77;70.92;100465.00;6275176;22;46029;-47
2023/01/19 03:49:30;;;;;;;;;29.75;18.75;;;;;3.80;70.72;100470.03;6274432;22;45444;-45
2023/01/19 03:51:57;;;;;;;;;23.50;17.00;;;;;3.83;71.69;100469.81;6274837;22;45238;-47
2023/01/19 03:54:23;;;;;;;;;29.75;16.50;;;;;3.85;71.37;100472.34;6275012;22;45278;-46
2023/01/19 03:56:48;;;;;;;;;15.50;12.25;;;;;3.82;70.00;100464.66;6274312;22;45786;-47
2023/01/19 03:59:16;;;;;;;;;32.25;22.50;;;;;3.79;71.20;100470.97;6275240;22;48513;-47
2023/01/19 04:01:41;;;;;;;;;23.00;17.00;;;;;3.83;71.50;100471.59;6274907;22;45265;-47
2023/01/19 04:04:07;;;;;;;;;15.00;12.00;;;;;3.78;71.19;100458.78;6275515;22;45298;-47
2023/01/19 04:06:32;;;;;;;;;24.50;18.50;;;;;3.88;71.27;100475.59;6274370;22;46140;-46
2023/01/19 04:08:57;;;;;;;;;23.25;15.75;;;;;3.90;71.65;100476.31;6274725;22;45253;-47
2023/01/19 04:11:23;;;;;;;;;24.00;16.75;;;;;3.88;70.98;100478.22;6275332;22;45266;-48
2023/01/19 04:13:49;;;;;;;;;17.75;16.25;;;;;3.89;71.62;100484.34;6275243;22;45269;-47
2023/01/19 04:16:18;;;;;;;;;26.25;16.50;;;;;3.90;71.06;100475.47;6274706;22;46681;-49
2023/01/19 04:18:44;;;;;;;;;22.75;18.50;;;;;3.90;70.43;100483.38;6247376;22;45281;-49
2023/01/19 04:21:09;;;;;;;;;24.50;16.75;;;;;3.85;71.17;100465.28;6274212;22;45552;-54
2023/01/19 04:23:35;;;;;;;;;21.25;18.25;;;;;3.92;70.88;100474.44;6275535;22;45170;-50
2023/01/19 04:26:06;;;;;;;;;20.50;16.25;;;;;3.89;70.55;100482.53;6275075;22;45268;-47
2023/01/19 04:28:33;;;;;;;;;21.00;15.75;;;;;3.90;70.33;100478.13;6275101;22;45387;-49
2023/01/19 04:30:59;;;;;;;;;22.25;18.25;;;;;3.88;70.97;100472.13;6274761;22;45306;-51
2023/01/19 04:33:26;;;;;;;;;18.00;14.00;;;;;3.87;70.43;100475.69;6275214;22;45230;-48
2023/01/19 04:35:52;;;;;;;;;19.75;16.25;;;;;3.84;70.44;100474.13;6274900;22;45226;-47
2023/01/19 04:38:18;;;;;;;;;23.75;19.25;;;;;3.85;71.27;100480.25;6274297;22;45312;-50
2023/01/19 04:40:44;;;;;;;;;15.50;14.75;;;;;3.83;71.25;100472.44;6274704;22;45325;-51
2023/01/19 04:43:09;;;;;;;;;17.50;13.75;;;;;3.77;71.57;100474.69;6274781;22;45433;-51
2023/01/19 04:45:35;;;;;;;;;20.50;17.50;;;;;3.59;71.12;100453.16;6274767;22;45738;-50
2023/01/19 04:48:03;;;;;;;;;17.75;16.75;;;;;3.60;71.68;100463.56;6274436;22;45803;-48
2023/01/19 04:50:28;;;;;;;;;24.50;18.00;;;;;3.51;72.54;100466.84;6274969;22;45220;-49
2023/01/19 04:52:54;;;;;;;;;16.25;16.00;;;;;3.42;72.20;100470.97;6274684;22;45306;-50
2023/01/19 04:55:19;;;;;;;;;20.75;13.00;;;;;3.36;71.87;100476.66;6274430;22;46122;-50
2023/01/19 04:57:44;;;;;;;;;30.25;15.00;;;;;3.14;72.97;100450.19;6274270;22;45300;-50
2023/01/19 05:00:10;;;;;;;;;22.50;18.00;;;;;3.26;72.68;100470.34;6274667;22;45238;-49
2023/01/19 05:02:36;;;;;;;;;17.25;17.25;;;;;3.26;72.83;100480.88;6275110;22;45123;-52
2023/01/19 05:05:02;;;;;;;;;24.75;17.25;;;;;3.27;72.33;100476.44;6274045;22;46210;-51
2023/01/19 05:07:27;;;;;;;;;23.50;19.75;;;;;3.27;72.90;100474.66;6275162;22;45116;-49
2023/01/19 05:09:53;;;;;;;;;25.75;16.75;;;;;3.32;73.43;100480.44;6274087;22;45660;-50
2023/01/19 05:12:18;;;;;;;;;20.00;15.00;;;;;3.32;72.58;100482.22;6274744;22;45192;-49
2023/01/19 05:14:44;;;;;;;;;24.50;18.00;;;;;3.28;73.35;100468.44;6272575;22;46549;-50
2023/01/19 05:17:09;;;;;;;;;24.75;19.50;;;;;3.34;72.84;100481.19;6274155;22;45281;-48
2023/01/19 05:19:35;;;;;;;;;20.75;17.00;;;;;3.36;72.43;100476.66;6274931;22;45281;-51
2023/01/19 05:22:04;;;;;;;;;13.00;13.00;;;;;3.36;73.56;100487.16;6274198;22;45351;-50
2023/01/19 05:24:29;;;;;;;;;20.75;14.75;;;;;3.37;73.40;100477.47;6274187;22;47350;-49
2023/01/19 05:26:55;;;;;;;;;21.00;15.75;;;;;3.40;73.07;100479.91;6274258;22;45217;-46
2023/01/19 05:29:20;;;;;;;;;21.25;15.75;;;;;3.44;73.59;100484.00;6274767;22;45282;-49
2023/01/19 05:31:45;;;;;;;;;20.25;15.00;;;;;3.43;72.51;100485.78;6273983;22;45460;-50
2023/01/19 05:34:11;;;;;;;;;19.50;15.00;;;;;3.32;73.20;100466.44;6273953;22;47053;-49
2023/01/19 05:36:36;;;;;;;;;21.75;15.25;;;;;3.37;72.79;100472.22;6274126;22;45190;-47
2023/01/19 05:39:02;;;;;;;;;23.00;18.50;;;;;3.38;72.69;100485.28;6274013;22;45277;-46
2023/01/19 05:41:28;;;;;;;;;19.25;11.50;;;;;3.37;72.99;100490.63;6274328;22;45177;-51
2023/01/19 05:43:53;;;;;;;;;26.25;16.75;;;;;3.20;73.00;100461.13;6274003;22;46105;-51
2023/01/19 05:46:18;;;;;;;;;19.50;16.75;;;;;3.34;72.81;100480.34;6273917;22;45306;-49
2023/01/19 05:48:44;;;;;;;;;20.00;16.75;;;;;3.35;72.67;100489.91;6274035;22;45254;-49
2023/01/19 05:51:09;;;;;;;;;19.75;12.50;;;;;3.35;72.47;100490.75;6273950;22;45361;-51
2023/01/19 05:53:34;;;;;;;;;23.75;13.50;;;;;3.23;73.40;100465.31;6274037;22;45381;-50
2023/01/19 05:56:04;;;;;;;;;21.00;13.75;;;;;3.39;72.70;100489.59;6274628;22;45248;-48
2023/01/19 05:58:31;;;;;;;;;14.75;12.75;;;;;3.40;72.82;100490.41;6274465;22;45418;-51
2023/01/19 06:00:56;;;;;;;;;23.25;13.00;;;;;3.45;73.08;100498.81;6274922;22;45639;-49
2023/01/19 06:03:21;;;;;;;;;25.00;17.75;;;;;3.36;73.10;100483.69;6273864;22;45945;-48
2023/01/19 06:05:47;;;;;;;;;16.50;13.00;;;;;3.37;73.58;100488.88;6273330;22;45168;-45
2023/01/19 06:08:13;;;;;;;;;27.00;17.00;;;;;3.36;72.96;100495.06;6274600;22;45169;-48
2023/01/19 06:10:38;;;;;;;;;18.75;15.75;;;;;3.34;73.49;100496.97;6274169;22;45196;-47
2023/01/19 06:13:04;;;;;;;;;10.00;10.00;;;;;3.28;72.73;100492.09;6273680;22;46101;-49
2023/01/19 06:15:29;;;;;;;;;15.25;10.75;;;;;3.23;72.98;100497.69;6274120;22;45289;-49
2023/01/19 06:17:54;;;;;;;;;17.00;11.00;;;;;3.20;73.19;100495.28;6273926;22;45388;-51
2023/01/19 06:20:20;;;;;;;;;17.75;14.00;;;;;3.23;73.21;100496.84;6274435;22;45320;-50
2023/01/19 06:22:46;;;;;;;;;11.75;9.75;;;;;3.22;73.05;100490.75;6275057;22;45293;-50
2023/01/19 06:25:11;;;;;;;;;11.50;11.50;;;;;3.14;73.49;100479.94;6275316;22;45401;-46
2023/01/19 06:27:38;;;;;;;;;18.25;15.25;;;;;3.13;74.18;100490.56;6275936;22;45345;-51
2023/01/19 06:30:05;;;;;;;;;13.00;10.00;;;;;3.15;73.95;100499.16;6275948;22;45266;-50
2023/01/19 06:32:31;;;;;;;;;13.50;9.00;;;;;3.04;73.39;100497.28;6275642;22;45944;-47
2023/01/19 06:34:56;;;;;;;;;13.00;13.00;;;;;3.07;74.55;100498.84;6273535;22;45199;-51
2023/01/19 06:37:21;;;;;;;;;15.25;10.50;;;;;3.08;73.87;100511.91;6275045;22;45207;-46
2023/01/19 06:39:46;;;;;;;;;16.50;10.00;;;;;3.07;73.54;100518.06;6275336;22;45332;-46
2023/01/19 06:42:12;;;;;;;;;23.00;11.00;;;;;2.96;73.98;100502.22;6274953;22;47244;-48
2023/01/19 06:44:37;;;;;;;;;15.75;10.00;;;;;3.04;74.00;100512.22;6275785;22;45147;-47
2023/01/19 06:47:02;;;;;;;;;10.75;10.75;;;;;3.07;74.63;100522.50;6275603;22;45216;-49
2023/01/19 06:49:28;;;;;;;;;8.00;7.50;;;;;3.04;73.57;100520.94;6275339;22;45199;-50
2023/01/19 06:51:53;;;;;;;;;9.75;9.75;;;;;2.99;74.09;100518.63;6275457;22;45267;-48
2023/01/19 06:54:19;;;;;;;;;17.00;10.25;;;;;2.95;74.46;100524.16;6275294;22;45387;-46
2023/01/19 06:56:44;;;;;;;;;13.75;10.00;;;;;2.98;74.32;100530.06;6247883;22;45200;-51
2023/01/19 06:59:09;;;;;;;;;8.25;7.50;;;;;2.96;74.28;100528.50;6275483;22;45316;-48
2023/01/19 07:01:35;;;;;;;;;16.00;11.00;;;;;2.95;74.69;100526.78;6274933;22;47201;-49
2023/01/19 07:04:00;;;;;;;;;7.50;2.25;;;;;2.95;73.71;100522.41;6275687;22;45317;-47
2023/01/19 07:06:25;;;;;;;;;13.25;10.75;;;;;2.87;74.28;100515.97;6274901;22;45257;-50
2023/01/19 07:08:51;;;;;;;;;22.25;11.25;;;;;2.82;74.47;100523.31;6275912;22;45233;-49
2023/01/19 07:11:16;;;;;;;;;13.75;10.75;;;;;2.83;74.26;100527.63;6275611;22;45207;-48
2023/01/19 07:13:43;;;;;;;;;9.50;8.00;;;;;2.82;74.87;100523.31;6275752;22;45267;-50
2023/01/19 07:16:12;;;;;;;;;7.00;7.00;;;;;2.77;74.16;100510.47;6276680;22;45406;-50
2023/01/19 07:18:39;;;;;;;;;13.00;9.00;;;;;2.81;75.18;100519.00;6275989;22;45255;-48
2023/01/19 07:21:05;;;;;;;;;20.75;14.25;;;;;2.81;75.33;100521.63;6274705;22;46307;-48
2023/01/19 07:23:31;;;;;;;;;12.50;8.75;;;;;2.70;75.69;100515.31;6275166;22;45329;-47
2023/01/19 07:25:57;;;;;;;;;10.25;9.75;;;;;2.58;75.10;100499.53;6275433;22;45367;-49
2023/01/19 07:28:23;;;;;;;;;11.00;8.75;;;;;2.61;75.49;100515.94;6275840;22;45254;-52
2023/01/19 07:30:52;;;;;;;;;18.25;12.75;;;;;2.55;75.92;100508.44;6273669;22;45274;-48
2023/01/19 07:33:18;;;;;;;;;15.50;10.00;;;;;2.57;76.09;100506.56;6274699;22;45309;-50
2023/01/19 07:35:48;;;;;;;;;19.00;15.00;;;;;2.65;76.20;100524.41;6275833;22;45274;-51
2023/01/19 07:38:14;;;;;;;;;14.00;12.00;;;;;2.68;74.87;100524.22;6274977;22;45294;-49
2023/01/19 07:40:40;;;;;;;;;18.50;13.75;;;;;2.69;75.51;100526.75;6274890;22;46132;-48
2023/01/19 07:43:05;;;;;;;;;15.50;10.75;;;;;2.67;75.46;100526.00;6275184;22;45187;-46
2023/01/19 07:45:30;;;;;;;;;13.50;11.00;;;;;2.69;75.70;100529.38;6274964;22;45132;-47
2023/01/19 07:47:56;;;;;;;;;16.00;13.00;;;;;2.65;76.04;100535.75;6275868;22;45119;-47
2023/01/19 07:50:24;;;;;;;;;14.50;13.00;;;;;2.69;76.62;100539.03;6274720;22;46949;-47
2023/01/19 07:52:51;;;;;;;;;15.25;13.50;;;;;2.67;76.75;100527.81;6275076;22;45474;-46
2023/01/19 07:55:17;;;;;;;;;14.50;14.50;;;;;2.62;76.08;100520.22;6275543;22;45344;-46
2023/01/19 07:57:42;;;;;;;;;25.00;15.50;;;;;2.77;76.09;100534.13;6275127;22;45324;-45
2023/01/19 08:00:08;;;;;;;;;19.75;18.25;;;;;2.82;76.61;100536.44;6275322;22;45836;-46
2023/01/19 08:02:34;;;;;;;;;23.75;13.00;;;;;2.80;76.30;100530.47;6274714;22;45359;-45
2023/01/19 08:05:00;;;;;;;;;16.75;13.25;;;;;2.90;75.75;100540.22;6275004;22;45651;-48
2023/01/19 08:07:25;;;;;;;;;25.75;20.00;;;;;2.91;75.76;100546.34;6275030;22;45552;-46
2023/01/19 08:09:51;;;;;;;;;21.00;17.50;;;;;2.90;75.58;100539.41;6275175;22;45722;-45
2023/01/19 08:12:17;;;;;;;;;21.00;18.00;;;;;2.92;75.30;100546.25;6273314;22;45229;-48
2023/01/19 08:14:42;;;;;;;;;15.50;15.50;;;;;2.95;75.52;100548.69;6275318;22;45302;-48
2023/01/19 08:17:11;;;;;;;;;18.75;16.25;;;;;2.96;75.60;100552.97;6275363;22;45245;-46
2023/01/19 08:19:36;;;;;;;;;17.00;12.50;;;;;2.99;75.01;100554.53;6271178;22;46802;-49
2023/01/19 08:22:02;;;;;;;;;23.00;19.00;;;;;2.95;75.10;100550.44;6274377;22;45349;-47
2023/01/19 08:24:28;;;;;;;;;18.75;15.00;;;;;3.03;75.17;100557.81;6247411;22;45243;-50
2023/01/19 08:27:01;;;;;;;;;17.75;13.25;;;;;3.07;74.60;100560.13;6274335;22;45786;-46
2023/01/19 08:29:29;;;;;;;;;19.00;13.00;;;;;3.06;74.96;100561.06;6272801;22;47111;-46
2023/01/19 08:31:57;;;;;;;;;16.25;13.75;;;;;2.48;73.90;100465.16;6274679;22;45254;-44
2023/01/19 08:34:23;;;;;;;;;19.00;17.00;;;;;3.08;74.54;100568.88;6273914;22;45274;-45
2023/01/19 08:36:48;;;;;;;;;16.25;12.75;;;;;3.15;74.93;100559.63;6273720;22;45222;-44
2023/01/19 08:39:13;;;;;;;;;16.00;15.50;;;;;3.16;74.53;100558.66;6271951;22;45341;-44
2023/01/19 08:41:39;;;;;;;;;20.00;15.75;;;;;3.21;73.79;100561.84;6272028;22;45310;-44
2023/01/19 08:44:04;;;;;;;;;24.00;19.00;;;;;3.20;74.87;100553.13;6271946;22;45533;-45
2023/01/19 08:46:29;;;;;;;;;30.25;18.50;;;;;3.16;74.36;100564.78;6272408;22;45524;-44
2023/01/19 08:48:55;;;;;;;;;19.75;15.25;;;;;3.09;75.33;100553.00;6271932;22;47088;-45
2023/01/19 08:51:21;;;;;;;;;21.75;19.25;;;;;3.18;74.40;100570.75;6272139;22;45406;-45
2023/01/19 08:53:46;;;;;;;;;16.00;16.00;;;;;3.20;74.53;100574.16;6270857;22;45584;-45
2023/01/19 08:56:13;;;;;;;;;30.00;20.00;;;;;3.21;74.68;100564.47;6272464;22;45281;-45
2023/01/19 08:58:39;;;;;;;;;20.00;18.00;;;;;3.18;74.31;100559.41;6271667;22;46914;-44
2023/01/19 09:01:07;;;;;;;;;22.25;15.25;;;;;3.21;74.68;100572.34;6272025;22;45399;-45
2023/01/19 09:03:33;;;;;;;;;26.25;19.75;;;;;3.17;74.61;100570.88;6272218;22;45448;-45
2023/01/19 09:05:59;;;;;;;;;28.75;15.50;;;;;3.21;74.32;100575.00;6272776;22;45357;-46
2023/01/19 09:08:24;;;;;;;;;27.00;20.75;;;;;3.29;74.29;100566.56;6270742;22;45231;-45
2023/01/19 09:10:50;;;;;;;;;24.00;15.50;;;;;3.34;74.12;100564.47;6272268;22;45143;-45
2023/01/19 09:13:17;;;;;;;;;13.75;11.50;;;;;3.30;74.38;100563.84;6272038;22;45368;-44
2023/01/19 09:15:42;;;;;;;;;28.75;24.50;;;;;3.33;73.60;100566.28;6272321;22;45350;-46
2023/01/19 09:18:12;;;;;;;;;27.75;24.25;;;;;3.43;74.15;100572.56;6272292;22;45853;-44
2023/01/19 09:20:42;;;;;;;;;28.25;18.75;;;;;3.47;73.78;100565.31;6271914;22;45353;-44
2023/01/19 09:23:14;;;;;;;;;31.50;22.50;;;;;3.48;73.74;100573.09;6271524;22;45343;-44
2023/01/19 09:25:41;;;;;;;;;21.75;12.25;;;;;3.39;73.31;100550.06;6272395;22;45246;-48
2023/01/19 09:28:09;;;;;;;;;24.50;20.00;;;;;3.50;72.90;100570.38;6272165;22;46347;-49
2023/01/19 09:30:39;;;;;;;;;25.50;18.75;;;;;3.43;72.83;100561.22;6271770;22;45285;-46
2023/01/19 09:33:06;;;;;;;;;26.75;23.75;;;;;3.48;73.18;100564.38;6272123;22;45384;-46
2023/01/19 09:35:33;;;;;;;;;27.75;22.75;;;;;3.50;73.15;100557.22;6272111;22;45405;-45
2023/01/19 09:37:59;;;;;;;;;32.00;20.25;;;;;3.58;73.48;100569.81;6270138;22;45435;-43
2023/01/19 09:40:24;;;;;;;;;37.00;26.25;;;;;3.60;72.83;100560.06;6271092;22;45314;-46
2023/01/19 09:42:58;;;;;;;;;36.00;27.75;;;;;3.60;72.93;100576.66;6271970;22;45374;-45
2023/01/19 09:45:34;;;;;;;;;36.25;26.25;;;;;3.64;73.49;100574.66;6271790;22;45336;-46
2023/01/19 09:48:04;;;;;;;;;34.00;26.75;;;;;3.67;73.69;100575.31;6271273;22;46349;-50
2023/01/19 09:50:36;;;;;;;;;26.25;21.50;;;;;3.63;73.64;100576.47;6271331;22;45324;-52
2023/01/19 09:53:12;;;;;;;;;32.25;24.25;;;;;3.71;73.26;100578.56;6271833;22;45429;-44
2023/01/19 09:55:40;;;;;;;;;25.25;23.50;;;;;3.78;74.03;100578.97;6272307;22;45700;-44
2023/01/19 09:58:12;;;;;;;;;22.50;21.00;;;;;3.84;72.85;100573.28;6272706;22;46276;-44
2023/01/19 10:00:38;;;;;;;;;31.75;19.75;;;;;3.91;73.58;100574.53;6273313;22;45246;-45
2023/01/19 10:03:15;;;;;;;;;29.25;23.50;;;;;3.95;73.16;100570.72;6272691;22;45325;-48
2023/01/19 10:05:52;;;;;;;;;30.75;25.00;;;;;3.99;72.32;100574.81;6273305;22;45579;-45
2023/01/19 10:08:39;;;;;;;;;31.25;25.00;;;;;4.04;72.56;100574.50;6271925;22;47034;-45
2023/01/19 10:11:18;;;;;;;;;30.75;24.75;;;;;4.06;72.55;100578.72;6273506;22;45376;-46
2023/01/19 10:13:52;;;;;;;;;24.50;20.25;;;;;4.11;71.92;100576.59;6272640;22;45235;-50
2023/01/19 10:16:33;;;;;;;;;26.50;19.00;;;;;3.99;72.55;100573.03;6273764;22;45278;-43
2023/01/19 10:19:14;;;;;;;;;24.25;21.25;;;;;4.05;72.39;100578.84;6273087;22;46079;-47
2023/01/19 10:21:43;;;;;;;;;29.00;26.00;;;;;3.84;72.54;100562.75;6273310;22;45311;-52
2023/01/19 10:24:42;;;;;;;;;29.25;22.00;;;;;3.85;73.24;100580.22;6272433;22;45322;-50
2023/01/19 10:27:17;;;;;;;;;36.50;31.00;;;;;3.82;73.56;100567.28;6273281;22;45244;-49
2023/01/19 10:29:44;;;;;;;;;35.00;21.00;;;;;3.85;72.75;100570.53;6272895;22;46184;-45
2023/01/19 10:32:21;;;;;;;;;36.75;26.50;;;;;3.91;72.96;100574.53;6272266;22;45743;-50
2023/01/19 10:34:48;;;;;;;;;24.00;21.25;;;;;4.01;73.49;100570.31;6273254;22;45309;-45
2023/01/19 10:37:30;;;;;;;;;27.50;17.50;;;;;4.07;73.28;100571.66;6273530;22;45334;-51
2023/01/19 10:40:28;;;;;;;;;25.50;22.00;;;;;4.16;72.87;100563.09;6271949;22;47247;-47
2023/01/19 10:42:55;;;;;;;;;23.75;17.50;;;;;4.22;72.55;100560.88;6272307;22;45764;-46
2023/01/19 10:45:24;;;;;;;;;15.25;7.25;;;;;4.24;72.39;100566.84;6273294;22;45321;-44
2023/01/19 10:47:51;;;;;;;;;27.50;19.50;;;;;4.22;72.29;100547.72;6273700;22;45341;-46
2023/01/19 10:50:35;;;;;;;;;30.75;24.00;;;;;4.22;71.55;100552.13;6272927;22;46060;-45
2023/01/19 10:53:04;;;;;;;;;25.25;20.25;;;;;4.14;72.32;100554.47;6272482;22;45466;-46
2023/01/19 10:55:32;;;;;;;;;28.50;23.75;;;;;4.14;72.48;100551.84;6273216;22;45420;-44
2023/01/19 10:57:58;;;;;;;;;22.25;21.75;;;;;3.98;73.06;100526.63;6273400;22;45321;-49
2023/01/19 11:00:36;;;;;;;;;22.75;21.00;;;;;4.08;72.19;100537.31;6272394;22;46302;-46
2023/01/19 11:03:21;;;;;;;;;29.00;25.25;;;;;4.17;72.98;100535.81;6273215;22;45404;-45
2023/01/19 11:05:46;;;;;;;;;29.25;27.50;;;;;4.19;72.69;100536.56;6273317;22;45317;-45
2023/01/19 11:08:27;;;;;;;;;32.25;25.50;;;;;4.12;72.54;100544.03;6273083;22;45334;-45
2023/01/19 11:10:58;;;;;;;;;27.00;23.75;;;;;4.09;72.17;100525.84;6273030;22;45341;-46
2023/01/19 11:13:23;;;;;;;;;24.75;21.75;;;;;4.00;72.35;100526.50;6271200;22;45396;-47
2023/01/19 11:15:56;;;;;;;;;30.25;26.00;;;;;4.04;72.55;100527.94;6272057;22;45361;-45
2023/01/19 11:18:34;;;;;;;;;40.75;25.50;;;;;4.08;73.43;100531.22;6273516;22;45377;-53
2023/01/19 11:21:05;;;;;;;;;20.50;14.25;;;;;4.01;73.07;100522.94;6274428;22;45317;-49
2023/01/19 11:23:40;;;;;;;;;20.50;12.75;;;;;4.14;73.52;100529.00;6273778;22;45545;-48
2023/01/19 11:26:07;;;;;;;;;16.50;14.75;;;;;4.14;72.69;100526.34;6275096;22;45432;-48
2023/01/19 11:28:45;;;;;;;;;33.00;24.25;;;;;4.17;73.38;100527.91;6247360;22;45435;-50
2023/01/19 11:31:10;;;;;;;;;29.75;25.50;;;;;4.18;72.98;100524.34;6274149;22;46339;-48
2023/01/19 11:33:46;;;;;;;;;31.75;23.50;;;;;4.18;73.17;100525.19;6275285;22;45278;-45